Time;durP1;ratioP1;P1;durP2;ratioP2;P2;SDS_P1;SDS_P2;PMS_P1;PMS_P2;Temp;Humidity;BMP_temperature;BMP_pressure;BME280_temperature;BME280_humidity;BME280_pressure;Samples;Min_cycle;Max_cycle;Signal;HPM_P1;HPM_P2
2022/12/24 00:00:57;;;;;;;0.60;0.50;;;10.70;99.90;;;;;;5072787;28;20225;-69
2022/12/24 00:03:22;;;;;;;1.52;1.48;;;10.60;99.90;;;;;;5072881;28;20414;-70
2022/12/24 00:05:48;;;;;;;0.30;0.30;;;10.60;99.90;;;;;;5074107;28;20177;-69
2022/12/24 00:08:14;;;;;;;0.30;0.30;;;10.50;99.90;;;;;;5074159;28;20180;-70
2022/12/24 00:10:39;;;;;;;0.40;0.40;;;10.40;99.90;;;;;;5073973;28;20280;-70
2022/12/24 00:13:05;;;;;;;0.83;0.83;;;10.20;99.90;;;;;;5073825;28;20220;-69
2022/12/24 00:15:31;;;;;;;0.40;0.40;;;10.10;99.90;;;;;;5073727;28;20603;-70
2022/12/24 00:17:56;;;;;;;0.47;0.47;;;10.10;99.90;;;;;;5073946;28;20177;-70
2022/12/24 00:20:23;;;;;;;0.40;0.40;;;10.10;99.90;;;;;;5074305;28;20272;-70
2022/12/24 00:22:49;;;;;;;0.50;0.50;;;10.20;99.90;;;;;;5073714;28;20631;-70
2022/12/24 00:25:15;;;;;;;0.30;0.30;;;10.20;99.90;;;;;;5073838;28;20248;-69
2022/12/24 00:27:40;;;;;;;0.50;0.50;;;10.30;99.90;;;;;;5073719;28;20222;-70
2022/12/24 00:30:06;;;;;;;0.30;0.30;;;10.40;99.90;;;;;;5073616;28;20715;-71
2022/12/24 00:32:32;;;;;;;0.40;0.40;;;10.60;99.90;;;;;;5073392;28;20170;-70
2022/12/24 00:34:57;;;;;;;0.40;0.40;;;10.70;99.90;;;;;;5073414;28;20180;-70
2022/12/24 00:37:23;;;;;;;0.50;0.50;;;10.60;99.90;;;;;;5073510;28;20185;-70
2022/12/24 00:39:49;;;;;;;3.20;0.63;;;10.60;99.90;;;;;;5073626;28;20187;-69
2022/12/24 00:42:14;;;;;;;0.40;0.40;;;10.50;99.90;;;;;;5073536;28;20173;-70
2022/12/24 00:44:40;;;;;;;0.30;0.30;;;10.50;99.90;;;;;;5073598;28;20283;-70
2022/12/24 00:47:05;;;;;;;0.30;0.30;;;10.50;99.90;;;;;;5073826;28;20177;-70
2022/12/24 00:49:31;;;;;;;1.13;1.03;;;10.60;99.90;;;;;;5073509;28;20189;-70
2022/12/24 00:51:57;;;;;;;0.30;0.30;;;10.70;99.90;;;;;;5073449;28;20593;-70
2022/12/24 00:54:22;;;;;;;0.63;0.63;;;10.60;99.90;;;;;;5073383;28;20596;-70
2022/12/24 00:56:48;;;;;;;0.70;0.70;;;10.50;99.90;;;;;;5073631;28;20165;-70
2022/12/24 00:59:13;;;;;;;0.30;0.30;;;10.40;99.90;;;;;;5074989;28;20204;-70
2022/12/24 01:01:39;;;;;;;0.30;0.30;;;10.40;99.90;;;;;;5080000;28;20192;-70
2022/12/24 01:06:49;;;;;;;0.43;0.43;;;10.50;99.90;;;;;;5080187;28;20215;-70
2022/12/24 01:09:15;;;;;;;0.30;0.30;;;10.60;99.90;;;;;;5079836;28;20185;-71
2022/12/24 01:11:40;;;;;;;0.80;0.80;;;10.60;99.90;;;;;;5079905;28;20238;-70
2022/12/24 01:14:06;;;;;;;0.30;0.30;;;10.50;99.90;;;;;;5079787;28;20273;-70
2022/12/24 01:16:31;;;;;;;0.30;0.30;;;10.40;99.90;;;;;;5080030;28;20218;-70
2022/12/24 01:18:57;;;;;;;1.20;1.20;;;10.40;99.90;;;;;;5079995;28;20657;-70
2022/12/24 01:21:23;;;;;;;1.50;0.90;;;10.50;99.90;;;;;;5079762;28;20293;-71
2022/12/24 01:23:48;;;;;;;1.10;0.83;;;10.60;99.90;;;;;;5079818;28;20177;-69
2022/12/24 01:26:14;;;;;;;1.03;1.03;;;10.60;99.90;;;;;;5079714;28;20172;-70
2022/12/24 01:28:40;;;;;;;1.00;1.00;;;10.50;99.90;;;;;;5080159;28;20222;-70
2022/12/24 01:31:11;;;;;;;0.30;0.30;;;10.50;99.90;;;;;;5079747;28;20685;-70
2022/12/24 01:33:37;;;;;;;0.30;0.30;;;10.50;99.90;;;;;;5079923;28;20209;-70
2022/12/24 01:36:03;;;;;;;0.30;0.30;;;10.40;99.90;;;;;;5079381;28;20538;-71
2022/12/24 01:38:29;;;;;;;0.57;0.57;;;10.30;99.90;;;;;;5080095;28;20219;-70
2022/12/24 01:43:38;;;;;;;3.35;1.60;;;10.20;99.90;;;;;;5079838;28;20591;-70
2022/12/24 01:46:10;;;;;;;0.53;0.50;;;10.30;99.90;;;;;;5079734;28;20177;-70
2022/12/24 01:48:41;;;;;;;0.30;0.30;;;10.30;99.90;;;;;;5080049;28;20173;-70
2022/12/24 01:51:13;;;;;;;0.50;0.50;;;10.30;99.90;;;;;;5079642;28;20224;-70
2022/12/24 01:53:43;;;;;;;0.40;0.40;;;10.30;99.90;;;;;;5079607;28;20193;-71
2022/12/24 01:56:10;;;;;;;0.40;0.40;;;10.40;99.90;;;;;;5079596;28;20633;-70
2022/12/24 01:58:37;;;;;;;0.30;0.30;;;10.40;99.90;;;;;;5079806;28;20166;-70
2022/12/24 02:01:03;;;;;;;0.50;0.50;;;10.40;99.90;;;;;;5079415;28;20251;-70
2022/12/24 02:03:29;;;;;;;0.40;0.40;;;10.40;99.90;;;;;;5078149;28;20696;-70
2022/12/24 02:05:57;;;;;;;0.30;0.30;;;10.30;99.90;;;;;;5079407;28;20185;-70
2022/12/24 02:08:23;;;;;;;0.30;0.30;;;10.30;99.90;;;;;;5079411;28;20173;-69
2022/12/24 02:10:49;;;;;;;1.67;1.57;;;10.30;99.90;;;;;;5075952;28;20243;-70
2022/12/24 02:13:18;;;;;;;4.43;1.13;;;10.20;99.90;;;;;;5076024;28;20284;-71
2022/12/24 02:15:55;;;;;;;0.30;0.30;;;10.20;99.90;;;;;;5076015;28;20403;-71
2022/12/24 02:18:50;;;;;;;0.40;0.40;;;10.20;99.90;;;;;;5076144;28;20157;-70
2022/12/24 02:21:22;;;;;;;1.40;1.30;;;10.20;99.90;;;;;;5074847;28;20231;-70
2022/12/24 02:23:50;;;;;;;0.82;0.70;;;10.20;99.90;;;;;;5076153;28;20165;-71
2022/12/24 02:26:53;;;;;;;1.10;1.10;;;10.20;99.90;;;;;;5075835;28;20669;-70
2022/12/24 02:29:44;;;;;;;0.30;0.30;;;10.30;99.90;;;;;;5076088;28;20645;-70
2022/12/24 02:32:45;;;;;;;0.30;0.30;;;10.30;99.90;;;;;;5075849;28;20173;-69
2022/12/24 02:35:17;;;;;;;0.40;0.40;;;10.10;99.90;;;;;;5075176;28;20204;-70
2022/12/24 02:37:51;;;;;;;0.40;0.40;;;10.20;99.90;;;;;;5075616;28;20647;-70
2022/12/24 02:40:21;;;;;;;0.40;0.40;;;10.20;99.90;;;;;;5075878;28;20189;-70
2022/12/24 02:43:01;;;;;;;1.35;1.00;;;10.20;99.90;;;;;;5075619;28;20181;-71
2022/12/24 02:45:33;;;;;;;0.40;0.40;;;10.10;99.90;;;;;;5075821;28;20538;-70
2022/12/24 02:47:59;;;;;;;0.30;0.30;;;10.20;99.90;;;;;;5075614;28;20173;-70
2022/12/24 02:50:26;;;;;;;0.40;0.40;;;10.20;99.90;;;;;;5075489;28;20189;-70
2022/12/24 02:52:52;;;;;;;0.40;0.40;;;10.20;99.90;;;;;;5075336;28;20216;-70
2022/12/24 02:55:31;;;;;;;0.30;0.30;;;10.20;99.90;;;;;;5075399;28;20170;-70
2022/12/24 02:58:18;;;;;;;1.85;0.77;;;10.10;99.90;;;;;;5075492;28;20211;-70
2022/12/24 03:00:55;;;;;;;0.30;0.30;;;10.10;99.90;;;;;;5075478;28;20189;-70
2022/12/24 03:03:37;;;;;;;0.40;0.40;;;10.20;99.90;;;;;;5075827;28;20176;-70
2022/12/24 03:06:18;;;;;;;0.30;0.30;;;10.10;99.90;;;;;;5075193;28;20166;-70
2022/12/24 03:08:59;;;;;;;0.80;0.60;;;9.90;99.90;;;;;;5075401;28;20191;-70
2022/12/24 03:11:25;;;;;;;0.30;0.30;;;9.90;99.90;;;;;;5075142;28;20161;-70
2022/12/24 03:13:53;;;;;;;0.60;0.60;;;10.00;99.90;;;;;;5075167;28;20246;-70
2022/12/24 03:16:23;;;;;;;0.45;0.45;;;9.90;99.90;;;;;;5074932;28;20227;-70
2022/12/24 03:18:51;;;;;;;0.30;0.30;;;9.90;99.90;;;;;;5075603;28;20165;-70
2022/12/24 03:21:25;;;;;;;0.40;0.40;;;10.00;99.90;;;;;;5074854;28;20197;-69
2022/12/24 03:23:51;;;;;;;0.77;0.77;;;10.10;99.90;;;;;;5074601;28;20162;-69
2022/12/24 03:26:18;;;;;;;0.30;0.30;;;10.10;99.90;;;;;;5074813;28;20520;-70
2022/12/24 03:28:45;;;;;;;0.30;0.30;;;10.10;99.90;;;;;;5074724;28;20177;-69
2022/12/24 03:31:11;;;;;;;0.30;0.30;;;10.10;99.90;;;;;;5074661;28;20198;-69
2022/12/24 03:33:37;;;;;;;0.73;0.73;;;10.10;99.90;;;;;;5074797;28;20197;-71
2022/12/24 03:36:04;;;;;;;0.30;0.30;;;10.00;99.90;;;;;;5073079;28;20173;-70
2022/12/24 03:38:30;;;;;;;0.30;0.30;;;9.90;99.90;;;;;;5074722;28;20177;-70
2022/12/24 03:40:55;;;;;;;3.10;0.70;;;9.90;99.90;;;;;;5074632;28;20196;-70
2022/12/24 03:43:21;;;;;;;1.80;0.67;;;9.90;99.90;;;;;;5074721;28;20226;-70
2022/12/24 03:45:47;;;;;;;0.50;0.50;;;10.00;99.90;;;;;;5074440;28;20188;-70
2022/12/24 03:48:12;;;;;;;1.53;1.03;;;9.90;99.90;;;;;;5074446;28;20245;-70
2022/12/24 03:50:38;;;;;;;0.30;0.30;;;9.90;99.90;;;;;;5074475;28;20762;-69
2022/12/24 03:53:04;;;;;;;4.87;0.80;;;9.80;99.90;;;;;;5074383;28;20205;-70
2022/12/24 03:55:29;;;;;;;0.30;0.30;;;9.80;99.90;;;;;;5074108;28;20166;-70
2022/12/24 03:57:55;;;;;;;0.30;0.30;;;9.70;99.90;;;;;;5074189;28;20261;-70
2022/12/24 04:00:21;;;;;;;3.03;0.50;;;9.60;99.90;;;;;;5074082;28;20204;-69
2022/12/24 04:02:46;;;;;;;0.30;0.30;;;9.50;99.90;;;;;;5074134;28;20169;-70
2022/12/24 04:05:18;;;;;;;0.83;0.80;;;9.50;99.90;;;;;;5072644;28;20177;-70
2022/12/24 04:07:44;;;;;;;0.30;0.30;;;9.50;99.90;;;;;;5074285;28;20174;-70
2022/12/24 04:10:11;;;;;;;8.90;0.87;;;9.60;99.90;;;;;;5073991;28;20250;-70
2022/12/24 04:12:36;;;;;;;0.40;0.40;;;9.70;99.90;;;;;;5073914;28;20483;-70
2022/12/24 04:15:03;;;;;;;0.30;0.30;;;9.70;99.90;;;;;;5072514;28;20733;-69
2022/12/24 04:17:28;;;;;;;0.30;0.30;;;9.60;99.90;;;;;;5073943;28;20402;-70
2022/12/24 04:19:54;;;;;;;0.57;0.57;;;9.50;99.90;;;;;;5072608;28;20284;-69
2022/12/24 04:22:20;;;;;;;2.27;2.13;;;9.60;99.90;;;;;;5073793;28;20682;-69
2022/12/24 04:24:45;;;;;;;0.93;0.70;;;9.60;99.90;;;;;;5073694;28;20173;-69
2022/12/24 04:27:13;;;;;;;1.27;0.90;;;9.50;99.90;;;;;;5073725;28;20170;-70
2022/12/24 04:29:39;;;;;;;0.30;0.30;;;9.50;99.90;;;;;;5073657;28;20814;-70
2022/12/24 04:32:04;;;;;;;1.33;1.23;;;9.60;99.90;;;;;;5073759;28;20174;-69
2022/12/24 04:34:30;;;;;;;4.10;1.13;;;9.60;99.90;;;;;;5072873;28;20669;-70
2022/12/24 04:36:55;;;;;;;0.73;0.70;;;9.60;99.90;;;;;;5073569;28;20188;-70
2022/12/24 04:39:21;;;;;;;0.30;0.30;;;9.60;99.90;;;;;;5072280;28;20197;-70
2022/12/24 04:41:47;;;;;;;12.03;1.23;;;9.60;99.90;;;;;;5072281;28;20187;-70
2022/12/24 04:44:12;;;;;;;0.40;0.40;;;9.50;99.90;;;;;;5073600;28;20634;-70
2022/12/24 04:46:38;;;;;;;0.40;0.40;;;9.60;99.90;;;;;;5073605;28;20623;-70
2022/12/24 04:49:04;;;;;;;0.40;0.40;;;9.70;99.90;;;;;;5073562;28;20180;-71
2022/12/24 04:51:29;;;;;;;0.30;0.30;;;9.70;99.90;;;;;;5073475;28;20638;-70
2022/12/24 04:53:56;;;;;;;0.33;0.33;;;9.50;99.90;;;;;;5073561;28;20271;-70
2022/12/24 04:56:27;;;;;;;0.40;0.40;;;9.60;99.90;;;;;;5073235;28;20196;-70
2022/12/24 04:58:52;;;;;;;0.30;0.30;;;9.60;99.90;;;;;;5073502;28;20169;-70
2022/12/24 05:01:21;;;;;;;1.43;0.67;;;9.60;99.90;;;;;;5073298;28;20526;-70
2022/12/24 05:03:47;;;;;;;0.40;0.40;;;9.60;99.90;;;;;;5073475;28;20428;-70
2022/12/24 05:06:16;;;;;;;0.30;0.30;;;9.60;99.90;;;;;;5073083;28;20525;-69
2022/12/24 05:08:42;;;;;;;1.67;1.58;;;9.50;99.90;;;;;;5073521;28;20173;-70
2022/12/24 05:11:09;;;;;;;2.20;1.95;;;9.40;99.90;;;;;;5073424;28;20197;-71
2022/12/24 05:13:34;;;;;;;0.40;0.40;;;9.40;99.90;;;;;;5073339;28;20286;-69
2022/12/24 05:16:00;;;;;;;0.40;0.40;;;9.40;99.90;;;;;;5073261;28;20197;-69
2022/12/24 05:18:26;;;;;;;0.57;0.57;;;9.50;99.90;;;;;;5073265;28;20165;-70
2022/12/24 05:20:52;;;;;;;0.30;0.30;;;9.60;99.90;;;;;;5073331;28;20181;-70
2022/12/24 05:26:39;;;;;;;0.50;0.50;;;9.60;99.90;;;;;;5073152;28;20250;-69
2022/12/24 05:29:06;;;;;;;0.50;0.50;;;9.60;99.90;;;;;;5072889;28;20262;-69
2022/12/24 05:31:32;;;;;;;0.30;0.30;;;9.60;99.90;;;;;;5073337;28;20173;-70
2022/12/24 05:33:58;;;;;;;2.50;0.50;;;9.60;99.90;;;;;;5072969;28;20338;-70
2022/12/24 05:36:24;;;;;;;0.43;0.43;;;9.60;99.90;;;;;;5072780;28;20185;-70
2022/12/24 05:38:51;;;;;;;0.50;0.50;;;9.50;99.90;;;;;;5073231;28;20174;-70
2022/12/24 05:41:17;;;;;;;0.30;0.30;;;9.40;99.90;;;;;;5072921;28;20477;-70
2022/12/24 05:43:42;;;;;;;4.80;2.10;;;9.40;99.90;;;;;;5073141;28;20250;-70
2022/12/24 05:46:10;;;;;;;0.30;0.30;;;9.20;99.90;;;;;;5074806;28;20166;-69
2022/12/24 05:48:36;;;;;;;0.30;0.30;;;9.30;99.90;;;;;;5076736;28;20165;-70
2022/12/24 05:51:06;;;;;;;0.47;0.47;;;9.30;99.90;;;;;;5076555;28;20247;-69
2022/12/24 05:53:33;;;;;;;0.40;0.40;;;9.40;99.90;;;;;;5076590;28;20242;-70
2022/12/24 05:56:16;;;;;;;0.40;0.40;;;9.50;99.90;;;;;;5075212;28;20182;-70
2022/12/24 05:58:43;;;;;;;2.15;0.80;;;9.50;99.90;;;;;;5076517;28;20252;-70
2022/12/24 06:01:10;;;;;;;0.70;0.70;;;9.50;99.90;;;;;;5076373;28;20281;-70
2022/12/24 06:03:36;;;;;;;0.30;0.30;;;9.50;99.90;;;;;;5076481;28;20182;-70
2022/12/24 06:06:14;;;;;;;0.65;0.65;;;9.50;99.90;;;;;;5076229;28;20184;-70
2022/12/24 06:08:41;;;;;;;0.73;0.73;;;9.50;99.90;;;;;;5076503;28;20177;-70
2022/12/24 06:11:09;;;;;;;0.30;0.30;;;9.40;99.90;;;;;;5076402;28;20204;-70
2022/12/24 06:13:36;;;;;;;0.50;0.50;;;9.40;99.90;;;;;;5076097;28;20193;-70
2022/12/24 06:16:03;;;;;;;1.45;1.45;;;9.50;99.90;;;;;;5076143;28;20173;-69
2022/12/24 06:18:31;;;;;;;0.50;0.50;;;9.60;99.90;;;;;;5074879;28;20177;-70
2022/12/24 06:20:57;;;;;;;1.10;0.93;;;9.60;99.90;;;;;;5076010;28;20185;-70
2022/12/24 06:23:24;;;;;;;27.40;1.50;;;9.60;99.90;;;;;;5076226;28;20181;-70
2022/12/24 06:25:50;;;;;;;6.57;1.63;;;9.70;99.90;;;;;;5075959;28;20173;-70
2022/12/24 06:28:16;;;;;;;0.77;0.77;;;9.70;99.90;;;;;;5076040;28;20199;-70
2022/12/24 06:30:45;;;;;;;0.37;0.37;;;9.70;99.90;;;;;;5076043;28;20228;-70
2022/12/24 06:33:11;;;;;;;0.40;0.40;;;9.60;99.90;;;;;;5075945;28;20188;-70
2022/12/24 06:35:37;;;;;;;1.07;1.07;;;9.60;99.90;;;;;;5075851;28;20176;-70
2022/12/24 06:38:03;;;;;;;0.63;0.63;;;9.60;99.90;;;;;;5075606;28;20430;-69
2022/12/24 06:40:28;;;;;;;0.60;0.60;;;9.70;99.90;;;;;;5075677;28;20192;-69
2022/12/24 06:42:54;;;;;;;0.30;0.30;;;9.70;99.90;;;;;;5075734;28;20169;-69
2022/12/24 06:45:20;;;;;;;0.30;0.30;;;9.60;99.90;;;;;;5075654;28;20188;-69
2022/12/24 06:47:45;;;;;;;1.07;0.60;;;9.60;99.90;;;;;;5075645;28;20536;-70
2022/12/24 06:50:11;;;;;;;0.77;0.77;;;9.60;99.90;;;;;;5075741;28;20543;-70
2022/12/24 06:52:37;;;;;;;0.30;0.30;;;9.60;99.90;;;;;;5075511;28;20162;-70
2022/12/24 06:55:03;;;;;;;1.10;1.10;;;9.60;99.90;;;;;;5075311;28;20208;-69
2022/12/24 06:57:30;;;;;;;0.63;0.63;;;9.70;99.90;;;;;;5074739;28;20170;-70
2022/12/24 06:59:56;;;;;;;0.90;0.90;;;9.60;99.90;;;;;;5075447;28;20181;-70
2022/12/24 07:02:23;;;;;;;0.30;0.30;;;9.60;99.90;;;;;;5075365;28;20180;-70
2022/12/24 07:04:48;;;;;;;0.52;0.45;;;9.50;99.90;;;;;;5075269;28;20173;-70
2022/12/24 07:07:14;;;;;;;0.30;0.30;;;9.50;99.90;;;;;;5075446;28;20174;-70
2022/12/24 07:09:40;;;;;;;0.43;0.43;;;9.50;99.90;;;;;;5075122;28;20284;-70
2022/12/24 07:12:05;;;;;;;0.30;0.30;;;9.50;99.90;;;;;;5075344;28;20260;-70
2022/12/24 07:14:31;;;;;;;0.50;0.50;;;9.50;99.90;;;;;;5074916;28;20185;-70
2022/12/24 07:16:57;;;;;;;0.30;0.30;;;9.50;99.90;;;;;;5075071;28;20681;-69
2022/12/24 07:19:23;;;;;;;0.40;0.40;;;9.60;99.90;;;;;;5075131;28;20485;-70
2022/12/24 07:21:49;;;;;;;1.27;1.17;;;9.50;99.90;;;;;;5074936;28;20166;-70
2022/12/24 07:24:15;;;;;;;0.50;0.50;;;9.40;99.90;;;;;;5074692;28;20431;-70
2022/12/24 07:26:40;;;;;;;0.40;0.40;;;9.50;99.90;;;;;;5074817;28;20508;-70
2022/12/24 07:29:06;;;;;;;0.60;0.60;;;9.50;99.90;;;;;;5074812;28;20244;-70
2022/12/24 07:31:32;;;;;;;0.57;0.50;;;9.60;99.90;;;;;;5074670;28;20170;-70
2022/12/24 07:33:58;;;;;;;0.40;0.40;;;9.60;99.90;;;;;;5074827;28;20662;-70
2022/12/24 07:36:23;;;;;;;0.30;0.30;;;9.60;99.90;;;;;;5074384;28;20261;-70
2022/12/24 07:38:50;;;;;;;0.30;0.30;;;9.60;99.90;;;;;;5074987;28;20203;-70
2022/12/24 07:41:16;;;;;;;0.40;0.40;;;9.70;99.90;;;;;;5074625;28;20594;-70
2022/12/24 07:43:41;;;;;;;0.50;0.50;;;9.70;99.90;;;;;;5074862;28;20265;-70
2022/12/24 07:46:07;;;;;;;0.77;0.60;;;9.70;99.90;;;;;;5073202;28;20427;-70
2022/12/24 07:48:32;;;;;;;0.30;0.30;;;9.70;99.90;;;;;;5074588;28;20559;-69
2022/12/24 07:50:58;;;;;;;0.47;0.43;;;9.80;99.90;;;;;;5074275;28;20186;-70
2022/12/24 07:53:25;;;;;;;0.30;0.30;;;9.80;99.90;;;;;;5074643;28;20654;-70
2022/12/24 07:55:51;;;;;;;0.40;0.40;;;9.70;99.90;;;;;;5074236;28;20165;-70
2022/12/24 07:58:17;;;;;;;1.35;0.82;;;9.70;99.90;;;;;;5074218;28;20178;-70
2022/12/24 08:00:42;;;;;;;1.33;0.50;;;9.90;99.90;;;;;;5074020;28;20280;-70
2022/12/24 08:03:18;;;;;;;0.30;0.30;;;9.90;99.90;;;;;;5074270;28;20197;-70
2022/12/24 08:05:45;;;;;;;0.85;0.60;;;10.00;99.90;;;;;;5073971;28;20157;-70
2022/12/24 08:08:11;;;;;;;0.30;0.30;;;10.00;99.90;;;;;;5073835;28;20185;-69
2022/12/24 08:10:40;;;;;;;0.50;0.50;;;9.90;99.90;;;;;;5073381;28;20242;-70
2022/12/24 08:13:06;;;;;;;0.30;0.30;;;10.00;99.90;;;;;;5073959;28;20408;-70
2022/12/24 08:15:32;;;;;;;0.70;0.70;;;9.90;99.90;;;;;;5073902;28;20536;-70
2022/12/24 08:17:57;;;;;;;0.40;0.40;;;9.80;99.90;;;;;;5074045;28;20584;-70
2022/12/24 08:20:23;;;;;;;0.30;0.30;;;9.60;99.90;;;;;;5074240;28;20193;-70
2022/12/24 08:22:49;;;;;;;0.80;0.70;;;9.60;99.90;;;;;;5073870;28;20165;-70
2022/12/24 08:25:14;;;;;;;0.80;0.80;;;9.70;99.90;;;;;;5073719;28;20181;-70
2022/12/24 08:27:40;;;;;;;0.73;0.73;;;9.80;99.90;;;;;;5073774;28;20170;-69
2022/12/24 08:30:07;;;;;;;1.57;1.47;;;9.90;99.90;;;;;;5073789;28;20832;-69
2022/12/24 08:32:33;;;;;;;0.30;0.30;;;10.00;99.90;;;;;;5073650;28;20178;-70
2022/12/24 08:34:58;;;;;;;1.00;1.00;;;10.00;99.90;;;;;;5073552;28;20243;-70
2022/12/24 08:37:24;;;;;;;0.70;0.70;;;10.00;99.90;;;;;;5073189;28;20177;-70
2022/12/24 08:39:50;;;;;;;0.40;0.40;;;10.00;99.90;;;;;;5072495;28;20213;-70
2022/12/24 08:42:15;;;;;;;0.50;0.50;;;10.00;99.90;;;;;;5070894;28;20168;-70
2022/12/24 08:44:41;;;;;;;0.83;0.73;;;10.10;99.90;;;;;;5073200;28;20252;-69
2022/12/24 08:47:07;;;;;;;8.03;3.13;;;10.20;99.90;;;;;;5074208;28;20497;-70
2022/12/24 08:49:32;;;;;;;0.40;0.40;;;10.30;99.90;;;;;;5071808;28;20185;-70
2022/12/24 08:51:58;;;;;;;0.30;0.30;;;10.40;99.90;;;;;;5073461;28;20642;-70
2022/12/24 08:54:24;;;;;;;1.53;1.50;;;10.40;99.90;;;;;;5073274;28;20289;-70
2022/12/24 08:56:50;;;;;;;0.30;0.30;;;10.40;99.90;;;;;;5073852;28;20169;-70
2022/12/24 08:59:16;;;;;;;0.63;0.63;;;10.40;99.90;;;;;;5073755;28;20212;-70
2022/12/24 09:01:42;;;;;;;0.40;0.40;;;10.40;99.90;;;;;;5073371;28;20166;-70
2022/12/24 09:04:08;;;;;;;0.40;0.40;;;10.40;99.90;;;;;;5073260;28;20399;-70
2022/12/24 09:06:34;;;;;;;0.40;0.40;;;10.30;99.90;;;;;;5073323;28;20193;-70
2022/12/24 09:09:02;;;;;;;0.50;0.50;;;10.40;99.90;;;;;;5073626;28;20181;-70
2022/12/24 09:11:27;;;;;;;0.30;0.30;;;10.40;99.90;;;;;;5073993;28;20173;-70
2022/12/24 09:13:53;;;;;;;0.30;0.30;;;10.40;99.90;;;;;;5073731;28;20208;-70
2022/12/24 09:16:19;;;;;;;1.58;0.52;;;10.40;99.90;;;;;;5073265;28;20177;-71
2022/12/24 09:18:45;;;;;;;0.93;0.53;;;10.30;99.90;;;;;;5073233;28;20173;-70
2022/12/24 09:21:14;;;;;;;0.40;0.40;;;10.30;99.90;;;;;;5075483;28;20189;-70
2022/12/24 09:23:40;;;;;;;0.30;0.30;;;10.40;99.90;;;;;;5077226;28;20404;-70
2022/12/24 09:26:22;;;;;;;0.75;0.68;;;10.50;99.90;;;;;;5077204;28;20174;-69
2022/12/24 09:28:49;;;;;;;0.47;0.47;;;10.60;99.90;;;;;;5077102;28;20175;-70
2022/12/24 09:31:15;;;;;;;0.30;0.30;;;10.50;99.90;;;;;;5076965;28;20623;-71
2022/12/24 09:33:43;;;;;;;0.75;0.75;;;10.50;99.90;;;;;;5077162;28;20241;-70
2022/12/24 09:36:09;;;;;;;0.60;0.60;;;10.50;99.90;;;;;;5077028;28;20176;-71
2022/12/24 09:38:35;;;;;;;0.40;0.40;;;10.60;99.90;;;;;;5076934;28;20248;-70
2022/12/24 09:41:09;;;;;;;0.40;0.40;;;10.70;99.90;;;;;;5076809;28;20198;-70
2022/12/24 09:43:36;;;;;;;0.30;0.30;;;10.80;99.90;;;;;;5077175;28;20185;-70
2022/12/24 09:46:25;;;;;;;0.30;0.30;;;10.90;99.90;;;;;;5076834;28;20260;-70
2022/12/24 09:48:56;;;;;;;0.50;0.40;;;11.00;99.80;;;;;;5076802;28;20253;-70
2022/12/24 09:51:30;;;;;;;1.90;1.05;;;11.10;99.90;;;;;;5077025;28;20166;-70
2022/12/24 09:54:01;;;;;;;0.50;0.50;;;11.20;99.20;;;;;;5077195;28;20185;-71
2022/12/24 09:56:32;;;;;;;0.40;0.40;;;11.20;99.10;;;;;;5077134;28;20402;-70
2022/12/24 09:59:09;;;;;;;0.30;0.30;;;11.20;98.80;;;;;;5077066;28;20875;-70
2022/12/24 10:01:34;;;;;;;10.18;1.30;;;11.10;99.10;;;;;;5077028;28;20153;-70
2022/12/24 10:04:09;;;;;;;1.57;1.47;;;11.10;98.90;;;;;;5077016;28;20196;-70
2022/12/24 10:06:35;;;;;;;0.43;0.43;;;11.00;99.20;;;;;;5076487;28;20204;-70
2022/12/24 10:09:31;;;;;;;0.30;0.30;;;11.10;99.30;;;;;;5076606;28;20227;-70
2022/12/24 10:12:16;;;;;;;1.30;1.23;;;11.10;99.10;;;;;;5075162;28;20172;-70
2022/12/24 10:14:51;;;;;;;0.50;0.50;;;11.10;99.20;;;;;;5075939;28;20193;-71
2022/12/24 10:17:16;;;;;;;0.68;0.68;;;11.00;98.90;;;;;;5076243;28;20189;-70
2022/12/24 10:19:49;;;;;;;0.77;0.77;;;11.10;99.10;;;;;;5074745;28;20592;-70
2022/12/24 10:22:28;;;;;;;2.25;2.15;;;11.10;99.00;;;;;;5076149;28;20181;-70
2022/12/24 10:25:13;;;;;;;0.30;0.30;;;11.20;98.90;;;;;;5075923;28;20166;-70
2022/12/24 10:27:39;;;;;;;0.30;0.30;;;11.20;98.60;;;;;;5076221;28;20174;-70
2022/12/24 10:30:19;;;;;;;0.50;0.40;;;11.20;98.60;;;;;;5075843;28;20185;-70
2022/12/24 10:32:47;;;;;;;0.40;0.40;;;11.30;98.20;;;;;;5075012;28;20504;-70
2022/12/24 10:35:16;;;;;;;1.27;1.17;;;11.30;98.10;;;;;;5075653;28;20538;-71
2022/12/24 10:37:43;;;;;;;1.00;0.90;;;11.40;98.20;;;;;;5075647;28;20424;-70
2022/12/24 10:40:34;;;;;;;0.70;0.70;;;11.40;98.10;;;;;;5075703;28;20430;-70
2022/12/24 10:43:00;;;;;;;3.10;0.80;;;11.30;98.00;;;;;;5075984;28;20426;-70
2022/12/24 10:45:35;;;;;;;0.50;0.50;;;11.30;98.30;;;;;;5075510;28;20919;-69
2022/12/24 10:48:06;;;;;;;0.30;0.30;;;11.10;98.40;;;;;;5075796;28;20165;-70
2022/12/24 10:50:39;;;;;;;0.30;0.30;;;10.90;98.50;;;;;;5074216;28;20424;-69
2022/12/24 10:53:30;;;;;;;0.40;0.40;;;10.90;99.00;;;;;;5075626;28;20885;-70
2022/12/24 10:56:08;;;;;;;0.33;0.33;;;11.10;98.90;;;;;;5074157;28;20935;-70
2022/12/24 10:58:34;;;;;;;0.50;0.50;;;11.10;98.40;;;;;;5075342;28;20431;-70
2022/12/24 11:01:00;;;;;;;0.30;0.30;;;11.20;98.50;;;;;;5075261;28;20663;-70
2022/12/24 11:03:32;;;;;;;0.40;0.40;;;11.30;98.60;;;;;;5075345;28;20252;-70
2022/12/24 11:06:02;;;;;;;0.93;0.70;;;11.30;98.40;;;;;;5075196;28;20182;-70
2022/12/24 11:08:28;;;;;;;0.30;0.30;;;11.30;98.00;;;;;;5075428;28;20265;-70
2022/12/24 11:11:05;;;;;;;0.30;0.30;;;11.20;98.00;;;;;;5075243;28;20277;-70
2022/12/24 11:13:44;;;;;;;1.23;1.13;;;11.10;98.20;;;;;;5075288;28;20566;-70
2022/12/24 11:16:37;;;;;;;0.30;0.30;;;11.10;98.50;;;;;;5075044;28;20173;-70
2022/12/24 11:19:13;;;;;;;0.30;0.30;;;11.10;98.10;;;;;;5074905;28;20181;-70
2022/12/24 11:21:40;;;;;;;0.50;0.50;;;11.10;97.80;;;;;;5073685;28;20180;-70
2022/12/24 11:24:24;;;;;;;0.30;0.30;;;11.10;98.20;;;;;;5074958;28;20451;-70
2022/12/24 11:26:50;;;;;;;0.40;0.40;;;11.20;98.50;;;;;;5075095;28;20294;-70
2022/12/24 11:29:23;;;;;;;0.40;0.40;;;11.20;98.20;;;;;;5074797;28;20487;-70
2022/12/24 11:31:51;;;;;;;0.30;0.30;;;11.30;98.10;;;;;;5074638;28;20177;-70
2022/12/24 11:34:27;;;;;;;0.30;0.30;;;11.30;98.00;;;;;;5073168;28;20861;-70
2022/12/24 11:37:09;;;;;;;0.40;0.40;;;11.40;97.70;;;;;;5074443;28;20506;-70
2022/12/24 11:39:49;;;;;;;0.30;0.30;;;11.50;97.30;;;;;;5074710;28;20439;-70
2022/12/24 11:42:40;;;;;;;0.43;0.43;;;11.50;97.30;;;;;;5074455;28;20478;-70
2022/12/24 11:45:28;;;;;;;0.40;0.40;;;11.60;97.60;;;;;;5074113;28;20186;-70
2022/12/24 11:47:55;;;;;;;0.30;0.30;;;11.60;96.80;;;;;;5072557;28;20805;-71
2022/12/24 11:50:23;;;;;;;0.30;0.30;;;11.60;96.70;;;;;;5074229;28;20526;-70
2022/12/24 11:53:04;;;;;;;0.52;0.52;;;11.50;96.40;;;;;;5074490;28;20517;-71
2022/12/24 11:55:38;;;;;;;0.30;0.30;;;11.50;96.80;;;;;;5074182;28;20173;-70
2022/12/24 11:58:15;;;;;;;0.40;0.40;;;11.50;97.00;;;;;;5074326;28;20193;-70
2022/12/24 12:00:44;;;;;;;0.73;0.73;;;11.70;96.80;;;;;;5074050;28;20661;-71
2022/12/24 12:03:41;;;;;;;0.30;0.30;;;11.70;96.20;;;;;;5074522;28;20764;-70
2022/12/24 12:06:23;;;;;;;0.30;0.30;;;11.80;96.40;;;;;;5074094;28;20745;-70
2022/12/24 12:08:54;;;;;;;1.60;1.50;;;12.00;96.50;;;;;;5074364;28;20388;-69
2022/12/24 12:11:21;;;;;;;1.27;1.17;;;12.00;95.90;;;;;;5072686;28;20948;-70
2022/12/24 12:13:47;;;;;;;0.50;0.50;;;11.90;95.50;;;;;;5074041;28;20486;-70
2022/12/24 12:17:11;;;;;;;6.80;4.53;;;11.90;96.00;;;;;;5073768;28;20427;-70
2022/12/24 12:19:47;;;;;;;0.30;0.30;;;11.70;95.70;;;;;;5063920;28;20512;-70
2022/12/24 12:22:31;;;;;;;0.70;0.70;;;11.50;95.90;;;;;;5074079;28;20399;-71
2022/12/24 12:24:59;;;;;;;1.00;0.93;;;11.50;95.90;;;;;;5073745;28;20407;-71
2022/12/24 12:27:34;;;;;;;0.87;0.40;;;11.60;96.00;;;;;;5073907;28;20408;-70
2022/12/24 12:30:15;;;;;;;1.60;1.50;;;11.60;96.10;;;;;;5073639;28;20498;-70
2022/12/24 12:33:01;;;;;;;0.30;0.30;;;11.40;95.80;;;;;;5074060;28;20400;-70
2022/12/24 12:35:37;;;;;;;1.67;0.93;;;11.20;95.90;;;;;;5072574;28;20182;-70
2022/12/24 12:38:20;;;;;;;3.30;0.67;;;11.30;96.10;;;;;;5073672;28;20936;-70
2022/12/24 12:41:15;;;;;;;1.13;0.93;;;11.40;96.20;;;;;;5073596;28;20849;-70
2022/12/24 12:43:56;;;;;;;0.65;0.65;;;11.40;96.10;;;;;;5073658;28;20661;-70
2022/12/24 12:46:55;;;;;;;0.40;0.40;;;11.60;96.10;;;;;;5073622;28;20243;-70
2022/12/24 12:49:57;;;;;;;0.50;0.50;;;11.50;96.60;;;;;;5073881;28;20220;-70
2022/12/24 12:52:34;;;;;;;0.53;0.53;;;11.50;96.60;;;;;;5073808;28;20164;-69
2022/12/24 12:55:21;;;;;;;0.30;0.30;;;11.50;96.30;;;;;;5072726;28;20449;-70
2022/12/24 12:57:49;;;;;;;0.30;0.30;;;11.40;96.20;;;;;;5072238;28;20549;-70
2022/12/24 13:00:17;;;;;;;0.30;0.30;;;11.20;96.40;;;;;;5073335;28;20185;-70
2022/12/24 13:03:14;;;;;;;0.30;0.30;;;11.20;96.90;;;;;;5073398;28;20629;-70
2022/12/24 13:06:04;;;;;;;0.30;0.30;;;11.30;96.70;;;;;;5073175;28;20169;-70
2022/12/24 13:08:33;;;;;;;0.40;0.40;;;11.30;96.40;;;;;;5073400;28;20173;-70
2022/12/24 13:11:02;;;;;;;0.35;0.35;;;11.40;96.90;;;;;;5073239;28;20557;-70
2022/12/24 13:13:43;;;;;;;0.97;0.97;;;11.20;97.00;;;;;;5073198;28;20194;-70